createdAt,value
2018-12-24T00:02:03.411Z,11.10
2018-12-24T00:04:32.199Z,11.20
2018-12-24T00:07:00.598Z,11.10
2018-12-24T00:09:29.092Z,11.20
2018-12-24T00:11:57.602Z,11.20
2018-12-24T00:14:25.998Z,11.20
2018-12-24T00:16:54.548Z,11.20
2018-12-24T00:19:22.986Z,11.20
2018-12-24T00:21:51.575Z,11.30
2018-12-24T00:24:19.956Z,11.30
2018-12-24T00:26:48.553Z,11.30
2018-12-24T00:29:17.103Z,11.30
2018-12-24T00:31:45.542Z,11.30
2018-12-24T00:34:14.086Z,11.20
2018-12-24T00:36:42.579Z,11.20
2018-12-24T00:39:11.050Z,11.20
2018-12-24T00:41:39.467Z,11.20
2018-12-24T00:44:07.879Z,11.20
2018-12-24T00:46:36.535Z,11.10
2018-12-24T00:49:04.939Z,11.00
2018-12-24T00:51:33.437Z,11.00
2018-12-24T00:54:01.852Z,11.00
2018-12-24T00:56:30.459Z,11.00
2018-12-24T00:58:58.917Z,11.00
2018-12-24T01:01:27.736Z,10.90
2018-12-24T01:03:56.128Z,10.90
2018-12-24T01:06:24.784Z,11.00
2018-12-24T01:08:53.259Z,11.00
2018-12-24T01:11:21.943Z,11.00
2018-12-24T01:13:50.393Z,11.10
2018-12-24T01:16:18.827Z,11.10
2018-12-24T01:18:47.410Z,11.20
2018-12-24T01:21:15.803Z,11.10
2018-12-24T01:23:44.598Z,11.10
2018-12-24T01:26:12.985Z,11.10
2018-12-24T01:31:09.528Z,11.20
2018-12-24T01:33:38.209Z,11.20
2018-12-24T01:36:06.758Z,11.20
2018-12-24T01:38:35.193Z,11.30
2018-12-24T01:41:03.652Z,11.30
2018-12-24T01:43:32.239Z,11.30
2018-12-24T01:46:00.644Z,11.30
2018-12-24T01:48:29.042Z,11.30
2018-12-24T01:50:57.452Z,11.20
2018-12-24T01:53:26.261Z,11.30
2018-12-24T01:55:54.662Z,11.30
2018-12-24T01:58:23.363Z,11.30
2018-12-24T02:00:51.758Z,11.30
2018-12-24T02:03:20.498Z,11.20
2018-12-24T02:05:48.900Z,11.30
2018-12-24T02:08:17.581Z,11.20
2018-12-24T02:10:45.995Z,11.20
2018-12-24T02:13:14.379Z,11.20
2018-12-24T02:15:42.771Z,11.20
2018-12-24T02:18:11.156Z,11.30
2018-12-24T02:20:39.562Z,11.30
2018-12-24T02:23:07.967Z,11.30
2018-12-24T02:25:36.591Z,11.30
2018-12-24T02:28:05.032Z,11.30
2018-12-24T02:30:33.451Z,11.20
2018-12-24T02:33:01.950Z,11.20
2018-12-24T02:35:30.380Z,11.30
2018-12-24T02:37:58.940Z,11.30
2018-12-24T02:40:27.321Z,11.20
2018-12-24T02:42:56.008Z,11.20
2018-12-24T02:45:24.451Z,11.20
2018-12-24T02:47:53.178Z,11.20
2018-12-24T02:50:21.543Z,11.30
2018-12-24T02:52:50.263Z,11.30
2018-12-24T02:55:18.803Z,11.30
2018-12-24T02:57:47.296Z,11.30
2018-12-24T03:00:15.898Z,11.30
2018-12-24T03:02:44.290Z,11.30
2018-12-24T03:05:12.736Z,11.40
2018-12-24T03:07:41.217Z,11.40
2018-12-24T03:10:09.605Z,11.30
2018-12-24T03:12:38.014Z,11.30
2018-12-24T03:15:06.871Z,11.30
2018-12-24T03:17:35.513Z,11.30
2018-12-24T03:20:04.848Z,11.30
2018-12-24T03:22:33.337Z,11.30
2018-12-24T03:25:01.832Z,11.20
2018-12-24T03:27:30.265Z,11.30
2018-12-24T03:29:58.831Z,11.30
2018-12-24T03:32:27.614Z,11.40
2018-12-24T03:34:56.044Z,11.30
2018-12-24T03:37:24.607Z,11.30
2018-12-24T03:39:53.218Z,11.30
2018-12-24T03:42:21.609Z,11.40
2018-12-24T03:44:50.022Z,11.30
2018-12-24T03:47:18.416Z,11.30
2018-12-24T03:49:47.130Z,11.30
2018-12-24T03:52:15.571Z,11.40
2018-12-24T03:54:44.245Z,11.40
2018-12-24T03:57:12.639Z,11.40
2018-12-24T03:59:41.051Z,11.30
2018-12-24T04:02:09.459Z,11.30
2018-12-24T04:04:37.859Z,11.30
2018-12-24T04:07:06.335Z,11.30
2018-12-24T04:09:35.110Z,11.30
2018-12-24T04:12:03.666Z,11.30
2018-12-24T04:14:32.113Z,11.30
2018-12-24T04:17:00.523Z,11.30
2018-12-24T04:19:28.902Z,11.40
2018-12-24T04:21:57.386Z,11.30
2018-12-24T04:24:26.196Z,11.40
2018-12-24T04:26:54.787Z,11.40
2018-12-24T04:29:23.430Z,11.40
2018-12-24T04:31:51.806Z,11.40
2018-12-24T04:34:20.213Z,11.40
2018-12-24T04:36:48.795Z,11.40
2018-12-24T04:39:17.198Z,11.40
2018-12-24T04:41:45.569Z,11.50
2018-12-24T04:44:14.041Z,11.50
2018-12-24T04:46:42.509Z,11.40
2018-12-24T04:49:10.922Z,11.40
2018-12-24T04:51:39.301Z,11.40
2018-12-24T04:54:08.120Z,11.40
2018-12-24T04:56:36.564Z,11.40
2018-12-24T04:59:05.156Z,11.40
2018-12-24T05:01:33.614Z,11.50
2018-12-24T05:04:02.033Z,11.40
2018-12-24T05:06:30.683Z,11.10
2018-12-24T05:08:59.098Z,10.90
2018-12-24T05:11:27.542Z,10.70
2018-12-24T05:13:55.951Z,10.50
2018-12-24T05:16:24.423Z,10.30
2018-12-24T05:18:52.999Z,10.20
2018-12-24T05:21:21.453Z,10.10
2018-12-24T05:23:49.855Z,10.00
2018-12-24T05:26:18.429Z,9.90
2018-12-24T05:28:46.896Z,9.90
2018-12-24T05:31:15.297Z,9.80
2018-12-24T05:33:43.691Z,9.70
2018-12-24T05:36:12.415Z,9.70
2018-12-24T05:38:40.894Z,9.60
2018-12-24T05:41:09.451Z,9.60
2018-12-24T05:43:37.807Z,9.50
2018-12-24T05:46:06.482Z,9.50
2018-12-24T05:48:34.879Z,9.40
2018-12-24T05:51:03.286Z,9.40
2018-12-24T05:53:31.673Z,9.30
2018-12-24T05:56:00.134Z,9.30
2018-12-24T05:58:28.497Z,9.30
2018-12-24T06:00:57.079Z,9.20
2018-12-24T06:03:25.487Z,9.20
2018-12-24T06:05:54.093Z,9.20
2018-12-24T06:08:22.493Z,9.20
2018-12-24T06:10:51.300Z,9.10
2018-12-24T06:13:19.743Z,9.10
2018-12-24T06:15:48.531Z,9.10
2018-12-24T06:18:16.943Z,9.10
2018-12-24T06:20:45.652Z,9.10
2018-12-24T06:23:14.295Z,9.00
2018-12-24T06:25:42.829Z,9.00
2018-12-24T06:28:11.346Z,9.00
2018-12-24T06:30:39.895Z,8.90
2018-12-24T06:33:08.457Z,8.90
2018-12-24T06:35:36.914Z,8.90
2018-12-24T06:38:05.352Z,8.90
2018-12-24T06:40:33.744Z,8.90
2018-12-24T06:43:02.324Z,8.80
2018-12-24T06:45:30.763Z,8.80
2018-12-24T06:47:59.566Z,8.80
2018-12-24T06:50:28.064Z,8.70
2018-12-24T06:52:56.613Z,8.70
2018-12-24T06:55:25.025Z,8.70
2018-12-24T06:57:53.796Z,8.60
2018-12-24T07:00:22.217Z,8.60
2018-12-24T07:02:50.600Z,8.50
2018-12-24T07:05:19.009Z,8.50
2018-12-24T07:07:47.377Z,8.50
2018-12-24T07:10:15.907Z,8.50
2018-12-24T07:12:44.370Z,8.50
2018-12-24T07:15:12.942Z,8.40
2018-12-24T07:17:41.317Z,8.40
2018-12-24T07:20:09.741Z,8.40
2018-12-24T07:22:38.207Z,8.40
2018-12-24T07:25:06.649Z,8.40
2018-12-24T07:27:35.049Z,8.40
2018-12-24T07:30:04.925Z,8.40
2018-12-24T07:32:33.616Z,8.30
2018-12-24T07:35:02.148Z,8.30
2018-12-24T07:37:30.846Z,8.20
2018-12-24T07:39:59.622Z,8.20
2018-12-24T07:42:28.026Z,8.10
2018-12-24T07:44:56.381Z,8.10
2018-12-24T07:47:25.037Z,8.10
2018-12-24T07:49:53.424Z,8.10
2018-12-24T07:52:21.942Z,8.10
2018-12-24T07:54:50.313Z,8.00
2018-12-24T07:57:18.703Z,8.10
2018-12-24T07:59:47.251Z,8.10
2018-12-24T08:02:15.837Z,8.20
2018-12-24T08:04:44.282Z,8.20
2018-12-24T08:07:12.776Z,8.20
2018-12-24T08:09:41.166Z,8.10
2018-12-24T08:12:09.784Z,8.10
2018-12-24T08:14:38.162Z,8.10
2018-12-24T08:17:06.656Z,8.10
2018-12-24T08:19:35.068Z,8.10
2018-12-24T08:22:03.462Z,8.00
2018-12-24T08:24:31.981Z,8.00
2018-12-24T08:27:00.566Z,8.00
2018-12-24T08:29:29.112Z,8.00
2018-12-24T08:31:57.667Z,8.10
2018-12-24T08:34:26.231Z,8.30
2018-12-24T08:36:54.619Z,8.30
2018-12-24T08:39:23.100Z,8.30
2018-12-24T08:41:51.491Z,8.20
2018-12-24T08:44:20.256Z,8.20
2018-12-24T08:46:48.626Z,8.10
2018-12-24T08:49:17.267Z,8.10
2018-12-24T08:51:45.817Z,8.10
2018-12-24T08:54:14.282Z,8.00
2018-12-24T08:56:42.711Z,8.00
2018-12-24T08:59:11.194Z,8.00
2018-12-24T09:01:39.740Z,8.00
2018-12-24T09:04:08.152Z,8.00
2018-12-24T09:06:36.817Z,7.90
2018-12-24T09:09:06.330Z,7.90
2018-12-24T09:11:34.891Z,7.90
2018-12-24T09:14:03.328Z,7.90
2018-12-24T09:16:31.726Z,7.90
2018-12-24T09:19:00.107Z,7.90
2018-12-24T09:21:28.550Z,7.90
2018-12-24T09:23:57.033Z,7.90
2018-12-24T09:26:25.495Z,7.90
2018-12-24T09:28:54.149Z,7.90
2018-12-24T09:31:22.638Z,7.90
2018-12-24T09:33:51.179Z,7.90
2018-12-24T09:36:19.678Z,7.90
2018-12-24T09:38:48.119Z,7.90
2018-12-24T09:41:16.738Z,7.90
2018-12-24T09:43:45.144Z,7.90
2018-12-24T09:46:13.871Z,7.90
2018-12-24T09:48:42.305Z,7.90
2018-12-24T09:51:10.681Z,7.90
2018-12-24T09:53:39.174Z,7.90
2018-12-24T09:56:07.544Z,7.90
2018-12-24T09:58:36.048Z,7.90
2018-12-24T10:01:04.611Z,7.80
2018-12-24T10:03:33.158Z,7.90
2018-12-24T10:06:04.375Z,7.90
2018-12-24T10:08:32.960Z,7.90
2018-12-24T10:11:01.470Z,7.90
2018-12-24T10:13:30.068Z,7.90
2018-12-24T10:15:58.534Z,7.80
2018-12-24T10:18:26.940Z,7.80
2018-12-24T10:20:55.312Z,7.80
2018-12-24T10:23:23.717Z,7.80
2018-12-24T10:25:52.174Z,7.80
2018-12-24T10:28:20.565Z,7.80
2018-12-24T10:30:49.042Z,7.80
2018-12-24T10:33:17.463Z,7.80
2018-12-24T10:35:45.981Z,7.80
2018-12-24T10:38:14.521Z,7.70
2018-12-24T10:40:44.394Z,7.70
2018-12-24T10:43:12.845Z,7.80
2018-12-24T10:45:41.233Z,7.80
2018-12-24T10:48:09.882Z,7.80
2018-12-24T10:50:38.380Z,7.80
2018-12-24T10:53:07.281Z,7.80
2018-12-24T10:55:35.872Z,7.90
2018-12-24T10:58:04.421Z,7.90
2018-12-24T11:00:32.862Z,7.90
2018-12-24T11:03:01.341Z,8.00
2018-12-24T11:05:29.801Z,8.00
2018-12-24T11:07:58.218Z,8.10
2018-12-24T11:10:27.347Z,8.10
2018-12-24T11:12:55.786Z,8.10
2018-12-24T11:15:25.259Z,8.10
2018-12-24T11:17:54.009Z,8.20
2018-12-24T11:20:22.372Z,8.20
2018-12-24T11:22:50.962Z,8.20
2018-12-24T11:25:19.497Z,8.10
2018-12-24T11:27:48.065Z,8.10
2018-12-24T11:30:16.452Z,8.10
2018-12-24T11:32:45.255Z,8.10
2018-12-24T11:35:13.725Z,8.10
2018-12-24T11:37:42.298Z,8.10
2018-12-24T11:40:10.681Z,8.00
2018-12-24T11:42:39.421Z,8.00
2018-12-24T11:45:07.895Z,8.00
2018-12-24T11:47:36.388Z,8.00
2018-12-24T11:50:05.378Z,8.00
2018-12-24T11:52:33.917Z,8.10
2018-12-24T11:55:02.273Z,8.10
2018-12-24T11:57:30.761Z,8.10
2018-12-24T11:59:59.133Z,8.10
2018-12-24T12:02:27.813Z,8.00
2018-12-24T12:04:56.263Z,8.00
2018-12-24T12:07:24.681Z,8.10
2018-12-24T12:09:53.087Z,8.10
2018-12-24T12:12:21.530Z,8.10
2018-12-24T12:14:50.107Z,8.10
2018-12-24T12:17:18.612Z,8.10
2018-12-24T12:19:47.173Z,8.10
2018-12-24T12:22:15.614Z,8.10
2018-12-24T12:24:44.260Z,8.10
2018-12-24T12:27:12.786Z,8.10
2018-12-24T12:29:41.267Z,8.10
2018-12-24T12:32:09.652Z,8.20
2018-12-24T12:34:38.062Z,8.20
2018-12-24T12:37:06.422Z,8.40
2018-12-24T12:39:34.855Z,8.50
2018-12-24T12:42:03.493Z,9.00
2018-12-24T12:44:31.975Z,9.60
2018-12-24T12:47:00.511Z,10.20
2018-12-24T12:49:28.896Z,10.70
2018-12-24T12:51:57.410Z,11.10
2018-12-24T12:54:25.931Z,11.20
2018-12-24T12:56:54.330Z,11.20
2018-12-24T12:59:22.898Z,11.00
2018-12-24T13:01:51.438Z,10.80
2018-12-24T13:04:19.975Z,10.60
2018-12-24T13:06:48.484Z,10.30
2018-12-24T13:09:17.120Z,10.10
2018-12-24T13:11:45.518Z,9.80
2018-12-24T13:14:13.887Z,9.70
2018-12-24T13:16:42.333Z,9.50
2018-12-24T13:19:10.690Z,9.40
2018-12-24T13:21:39.465Z,9.30
2018-12-24T13:24:07.974Z,9.20
2018-12-24T13:26:36.385Z,9.20
2018-12-24T13:29:04.845Z,9.10
2018-12-24T13:31:33.392Z,9.10
2018-12-24T13:34:01.824Z,9.10
2018-12-24T13:36:30.442Z,9.10
2018-12-24T13:38:59.004Z,9.10
2018-12-24T13:41:27.562Z,9.00
2018-12-24T13:43:56.116Z,9.00
2018-12-24T13:46:24.652Z,8.90
2018-12-24T13:48:53.216Z,8.80
2018-12-24T13:51:21.663Z,8.80
2018-12-24T13:53:50.146Z,8.70
2018-12-24T13:56:18.772Z,8.70
2018-12-24T13:59:32.994Z,8.60
2018-12-24T14:02:01.530Z,8.60
2018-12-24T14:04:29.854Z,8.60
2018-12-24T14:06:58.131Z,8.60
2018-12-24T14:09:29.627Z,8.50
2018-12-24T14:11:57.905Z,8.40
2018-12-24T14:14:26.342Z,8.40
2018-12-24T14:16:54.705Z,8.30
2018-12-24T14:19:23.060Z,8.30
2018-12-24T14:21:51.509Z,8.30
2018-12-24T14:24:19.914Z,8.20
2018-12-24T14:26:48.247Z,8.10
2018-12-24T14:29:16.570Z,8.10
2018-12-24T14:31:44.875Z,8.00
2018-12-24T14:34:13.831Z,8.00
2018-12-24T14:36:42.217Z,7.90
2018-12-24T14:39:10.507Z,7.90
2018-12-24T14:41:39.676Z,7.90
2018-12-24T14:44:08.346Z,7.80
2018-12-24T14:46:36.982Z,7.80
2018-12-24T14:49:05.568Z,7.80
2018-12-24T14:51:34.177Z,7.70
2018-12-24T14:54:02.582Z,7.70
2018-12-24T14:56:31.018Z,7.60
2018-12-24T14:58:59.432Z,7.60
2018-12-24T15:01:28.174Z,7.60
2018-12-24T15:03:56.453Z,7.50
2018-12-24T15:06:24.760Z,7.50
2018-12-24T15:08:53.376Z,7.40
2018-12-24T15:11:21.696Z,7.20
2018-12-24T15:13:49.970Z,7.10
2018-12-24T15:16:18.361Z,7.10
2018-12-24T15:18:47.155Z,7.00
2018-12-24T15:21:15.640Z,6.80
2018-12-24T15:23:43.901Z,6.80
2018-12-24T15:26:12.188Z,6.80
2018-12-24T15:28:40.772Z,6.80
2018-12-24T15:31:09.106Z,6.90
2018-12-24T15:33:37.563Z,6.80
2018-12-24T15:36:05.898Z,6.80
2018-12-24T15:38:34.255Z,6.80
2018-12-24T15:41:02.759Z,6.80
2018-12-24T15:43:31.222Z,6.70
2018-12-24T15:45:59.489Z,6.70
2018-12-24T15:48:27.800Z,6.60
2018-12-24T15:50:56.206Z,6.60
2018-12-24T15:53:24.768Z,6.50
2018-12-24T15:55:53.214Z,6.40
2018-12-24T15:58:22.551Z,6.30
2018-12-24T16:00:50.865Z,6.30
2018-12-24T16:03:20.071Z,6.30
2018-12-24T16:05:48.428Z,6.30
2018-12-24T16:08:16.783Z,6.30
2018-12-24T16:10:45.456Z,6.30
2018-12-24T16:13:14.048Z,6.30
2018-12-24T16:15:42.747Z,6.30
2018-12-24T16:18:11.030Z,6.30
2018-12-24T16:20:39.344Z,6.30
2018-12-24T16:23:07.686Z,6.10
2018-12-24T16:25:36.315Z,6.00
2018-12-24T16:28:04.623Z,5.90
2018-12-24T16:30:33.104Z,5.80
2018-12-24T16:33:01.377Z,5.80
2018-12-24T16:35:29.687Z,5.80
2018-12-24T16:37:58.230Z,5.80
2018-12-24T16:40:26.643Z,5.80
2018-12-24T16:42:54.988Z,5.80
2018-12-24T16:45:23.291Z,5.80
2018-12-24T16:47:51.589Z,5.80
2018-12-24T16:50:20.066Z,5.70
2018-12-24T16:52:48.515Z,5.70
2018-12-24T16:55:17.057Z,5.80
2018-12-24T16:57:45.358Z,5.70
2018-12-24T17:00:13.707Z,5.70
2018-12-24T17:02:42.050Z,5.70
2018-12-24T17:05:10.590Z,5.70
2018-12-24T17:07:39.027Z,5.70
2018-12-24T17:10:08.253Z,5.60
2018-12-24T17:12:36.784Z,5.60
2018-12-24T17:15:05.492Z,5.60
2018-12-24T17:17:33.809Z,5.60
2018-12-24T17:20:02.369Z,5.60
2018-12-24T17:22:30.870Z,5.70
2018-12-24T17:24:59.134Z,5.70
2018-12-24T17:27:27.416Z,5.70
2018-12-24T17:29:55.704Z,5.70
2018-12-24T17:32:24.031Z,5.80
2018-12-24T17:34:52.487Z,5.80
2018-12-24T17:37:20.787Z,5.80
2018-12-24T17:39:51.032Z,5.80
2018-12-24T17:42:19.094Z,5.80
2018-12-24T17:44:47.436Z,5.70
2018-12-24T17:47:16.414Z,5.60
2018-12-24T17:49:45.801Z,5.50
2018-12-24T17:52:14.387Z,5.40
2018-12-24T17:54:42.826Z,5.40
2018-12-24T17:57:11.087Z,5.40
2018-12-24T17:59:41.436Z,5.50
2018-12-24T18:02:10.757Z,5.50
2018-12-24T18:04:39.322Z,5.60
2018-12-24T18:07:07.660Z,5.60
2018-12-24T18:09:35.953Z,5.70
2018-12-24T18:12:04.231Z,5.70
2018-12-24T18:14:32.798Z,5.70
2018-12-24T18:17:01.319Z,5.60
2018-12-24T18:19:29.642Z,5.60
2018-12-24T18:21:58.002Z,5.60
2018-12-24T18:24:26.409Z,5.70
2018-12-24T18:26:54.977Z,5.70
2018-12-24T18:29:23.414Z,5.70
2018-12-24T18:31:51.804Z,5.70
2018-12-24T18:34:20.146Z,5.70
2018-12-24T18:36:48.449Z,5.70
2018-12-24T18:39:16.772Z,5.80
2018-12-24T18:41:45.160Z,5.80
2018-12-24T18:44:13.653Z,5.80
2018-12-24T18:46:42.297Z,5.80
2018-12-24T18:49:10.734Z,5.80
2018-12-24T18:51:39.913Z,5.80
2018-12-24T18:54:09.836Z,5.90
2018-12-24T18:56:38.304Z,5.90
2018-12-24T18:59:06.819Z,5.90
2018-12-24T19:01:36.809Z,5.90
2018-12-24T19:04:05.078Z,5.90
2018-12-24T19:06:33.663Z,6.00
2018-12-24T19:09:01.971Z,6.10
2018-12-24T19:11:30.576Z,6.10
2018-12-24T19:13:58.903Z,6.20
2018-12-24T19:16:27.244Z,6.20
2018-12-24T19:18:55.749Z,6.10
2018-12-24T19:21:24.148Z,6.20
2018-12-24T19:23:52.468Z,6.20
2018-12-24T19:26:20.780Z,6.10
2018-12-24T19:28:49.411Z,6.10
2018-12-24T19:31:17.873Z,6.10
2018-12-24T19:33:46.197Z,6.00
2018-12-24T19:36:14.636Z,6.10
2018-12-24T19:38:43.227Z,6.00
2018-12-24T19:41:11.496Z,6.00
2018-12-24T19:43:40.737Z,5.80
2018-12-24T19:46:09.031Z,5.80
2018-12-24T19:48:37.391Z,5.70
2018-12-24T19:51:05.829Z,5.70
2018-12-24T19:53:34.137Z,5.70
2018-12-24T19:56:02.480Z,5.70
2018-12-24T19:58:30.783Z,5.70
2018-12-24T20:00:59.227Z,5.80
2018-12-24T20:03:27.621Z,5.70
2018-12-24T20:05:56.068Z,5.80
2018-12-24T20:08:24.456Z,5.80
2018-12-24T20:10:52.891Z,5.80
2018-12-24T20:13:21.234Z,5.90
2018-12-24T20:15:49.667Z,5.70
2018-12-24T20:18:18.054Z,5.60
2018-12-24T20:20:46.376Z,5.60
2018-12-24T20:23:14.635Z,5.60
2018-12-24T20:25:42.942Z,5.50
2018-12-24T20:28:11.507Z,5.50
2018-12-24T20:30:40.691Z,5.60
2018-12-24T20:33:09.043Z,5.60
2018-12-24T20:35:37.400Z,5.60
2018-12-24T20:38:05.658Z,5.60
2018-12-24T20:40:34.029Z,5.70
2018-12-24T20:43:02.483Z,5.70
2018-12-24T20:45:31.201Z,5.60
2018-12-24T20:48:06.636Z,5.60
2018-12-24T20:50:29.900Z,5.70
2018-12-24T20:52:58.298Z,5.70
2018-12-24T20:55:27.090Z,5.70
2018-12-24T20:57:55.453Z,5.70
2018-12-24T21:00:23.759Z,5.70
2018-12-24T21:02:52.154Z,5.70
2018-12-24T21:05:20.682Z,5.70
2018-12-24T21:07:49.118Z,5.70
2018-12-24T21:10:17.456Z,5.60
2018-12-24T21:12:45.859Z,5.60
2018-12-24T21:15:14.321Z,5.60
2018-12-24T21:17:42.647Z,5.60
2018-12-24T21:20:11.017Z,5.60
2018-12-24T21:22:39.342Z,5.60
2018-12-24T21:25:07.615Z,5.50
2018-12-24T21:27:35.930Z,5.50
2018-12-24T21:30:04.948Z,5.40
2018-12-24T21:32:33.315Z,5.40
2018-12-24T21:35:01.604Z,5.40
2018-12-24T21:37:30.041Z,5.40
2018-12-24T21:39:58.519Z,5.30
2018-12-24T21:42:27.014Z,5.30
2018-12-24T21:44:55.427Z,5.30
2018-12-24T21:47:24.012Z,5.20
2018-12-24T21:49:52.362Z,5.20
2018-12-24T21:52:20.864Z,5.20
2018-12-24T21:54:49.163Z,5.10
2018-12-24T21:57:18.364Z,5.00
2018-12-24T21:59:46.902Z,5.00
2018-12-24T22:02:16.047Z,4.90
2018-12-24T22:04:44.590Z,4.70
2018-12-24T22:07:12.890Z,4.50
2018-12-24T22:09:41.458Z,4.60
2018-12-24T22:12:09.756Z,4.60
2018-12-24T22:14:38.130Z,4.60
2018-12-24T22:17:06.414Z,4.60
2018-12-24T22:19:34.784Z,4.60
2018-12-24T22:22:03.478Z,4.50
2018-12-24T22:24:32.012Z,4.50
2018-12-24T22:27:01.261Z,4.50
2018-12-24T22:29:46.494Z,4.50
2018-12-24T22:34:44.752Z,4.40
2018-12-24T22:37:13.135Z,4.30
2018-12-24T22:39:41.483Z,4.30
2018-12-24T22:42:10.742Z,4.30
2018-12-24T22:44:39.468Z,4.30
2018-12-24T22:47:08.609Z,4.30
2018-12-24T22:49:37.223Z,4.30
2018-12-24T22:52:06.688Z,4.20
2018-12-24T22:54:34.984Z,4.20
2018-12-24T22:57:03.342Z,4.20
2018-12-24T22:59:31.814Z,4.10
2018-12-24T23:02:00.304Z,4.00
2018-12-24T23:04:28.702Z,3.90
2018-12-24T23:06:57.010Z,3.90
2018-12-24T23:09:25.380Z,3.90
2018-12-24T23:11:53.816Z,3.90
2018-12-24T23:14:22.187Z,3.90
2018-12-24T23:16:50.748Z,3.80
2018-12-24T23:19:19.032Z,3.80
2018-12-24T23:21:47.414Z,3.80
2018-12-24T23:24:16.556Z,3.80
2018-12-24T23:26:45.050Z,3.80
2018-12-24T23:29:13.769Z,3.80
2018-12-24T23:31:42.089Z,3.60
2018-12-24T23:34:10.472Z,3.50
2018-12-24T23:36:38.821Z,3.50
2018-12-24T23:39:07.303Z,3.40
2018-12-24T23:41:35.744Z,3.40
2018-12-24T23:44:04.245Z,3.30
2018-12-24T23:46:32.617Z,3.30
2018-12-24T23:49:00.945Z,3.30
2018-12-24T23:51:29.580Z,3.30
2018-12-24T23:53:58.120Z,3.30
2018-12-24T23:56:26.737Z,3.30
2018-12-24T23:58:55.108Z,3.30
